Bantam, CT (06750)

3:29 AM EDT on August 04, 2015 (GMT -0400)
White Memorial Conservation Center | | Change Station
CLOSE
Current Station
Personal Weather Station
Location: Litchfield, CT
Elevation: 942 ft
Nearby Weather Stations

Elev 942 ft 41.72 °N, 73.21 °W | Updated 4 minutes ago

Overcast
Overcast
66.1 °F
Feels Like 66.1 °F
N
1.0
Wind Variable Wind from SSW
Gusts 1.0 mph

Today
High -- | Low -- °F
--% Chance of Precip.
Yesterday
High -- | Low -- °F
Precip. -- in
5:49 AM 8:07 PM
Waning Gibbous, 80% visible
Pressure 29.86 in
Visibility 5.0 miles
Clouds Few 8500 ft
Scattered Clouds 11000 ft
Dew Point 64 °F
Humidity 94%
Rainfall 0.00 in
Snow Depth Not available.
UV 0 out of 12
Pollen 8.00 out of 12
Air Quality Not available.
Flu Activity Not available.
METAR KOXC 040715Z 17003KT 5SM FEW085 SCT110 22/18 A2986 RMK AO1

More Conditions Fewer Conditions

Pressure 29.86 in
Visibility 5.0 miles
Clouds Few 8500 ft
Scattered Clouds 11000 ft
Dew Point 64 °F
Humidity 94%
Rainfall 0.00 in
Snow Depth Not available.
UV 0 out of 12
Pollen 8.00 out of 12
Air Quality Not available.
Flu Activity Not available.
METAR KOXC 040715Z 17003KT 5SM FEW085 SCT110 22/18 A2986 RMK AO1

More Conditions Fewer Conditions

10-Day Weather Forecast

×

Almanac

Astronomy

Aug. 04, 2015 Rise Set
Actual Time
Civil Twilight
Nautical Twilight
Astronomical Twilight
Moon
Length of Visible Light
Length of Day
Tomorrow will be .
, % of the Moon is Illuminated

Today's Extremes

State Highs State Lows

Community

WunderPhotos

Upload Photos

1,843,877 photos uploaded!

WunderBlogs® & News

Nearby

Air Quality

  Air Quality AQ Index Pollutant
Not available.

Snow Depth

Station Depth Elevation

Earthquake Activity

City Distance Mag. Time & Date
Minimum magnitude displayed is 2.5.

Coastal Water Temperatures

Place Temperature

Stations

Nearby Weather Stations

Station Location Temp. Windchill Dew Point Humidity Wind Precip. Elev Updated Type